sensor_id;sensor_type;location;lat;lon;timestamp;P1;durP1;ratioP1;P2;durP2;ratioP2
7971;SDS011;4031;49.758;6.120;2022-11-28T00:00:58;7.93;;;4.97;;
7971;SDS011;4031;49.758;6.120;2022-11-28T00:03:25;7.30;;;5.33;;
7971;SDS011;4031;49.758;6.120;2022-11-28T00:05:51;8.23;;;5.77;;
7971;SDS011;4031;49.758;6.120;2022-11-28T00:08:17;8.83;;;5.60;;
7971;SDS011;4031;49.758;6.120;2022-11-28T00:10:43;6.87;;;5.60;;
7971;SDS011;4031;49.758;6.120;2022-11-28T00:13:09;7.90;;;5.80;;
7971;SDS011;4031;49.758;6.120;2022-11-28T00:15:35;8.00;;;5.87;;
7971;SDS011;4031;49.758;6.120;2022-11-28T00:18:01;7.80;;;5.20;;
7971;SDS011;4031;49.758;6.120;2022-11-28T00:20:29;9.53;;;5.50;;
7971;SDS011;4031;49.758;6.120;2022-11-28T00:22:57;9.07;;;4.93;;
7971;SDS011;4031;49.758;6.120;2022-11-28T00:25:23;9.03;;;5.77;;
7971;SDS011;4031;49.758;6.120;2022-11-28T00:27:49;6.67;;;5.10;;
7971;SDS011;4031;49.758;6.120;2022-11-28T00:30:15;7.90;;;5.03;;
7971;SDS011;4031;49.758;6.120;2022-11-28T00:32:40;9.93;;;4.97;;
7971;SDS011;4031;49.758;6.120;2022-11-28T00:35:06;7.37;;;5.33;;
7971;SDS011;4031;49.758;6.120;2022-11-28T00:37:32;8.27;;;6.50;;
7971;SDS011;4031;49.758;6.120;2022-11-28T00:39:58;9.20;;;6.20;;
7971;SDS011;4031;49.758;6.120;2022-11-28T00:42:23;10.30;;;6.77;;
7971;SDS011;4031;49.758;6.120;2022-11-28T00:44:49;10.77;;;7.80;;
7971;SDS011;4031;49.758;6.120;2022-11-28T00:47:15;8.07;;;6.70;;
7971;SDS011;4031;49.758;6.120;2022-11-28T00:49:42;9.50;;;6.47;;
7971;SDS011;4031;49.758;6.120;2022-11-28T00:52:07;9.60;;;6.60;;
7971;SDS011;4031;49.758;6.120;2022-11-28T00:54:33;11.60;;;6.23;;
7971;SDS011;4031;49.758;6.120;2022-11-28T00:56:59;14.70;;;7.03;;
7971;SDS011;4031;49.758;6.120;2022-11-28T00:59:25;9.53;;;6.67;;
7971;SDS011;4031;49.758;6.120;2022-11-28T01:01:50;9.10;;;6.13;;
7971;SDS011;4031;49.758;6.120;2022-11-28T01:04:16;7.07;;;5.97;;
7971;SDS011;4031;49.758;6.120;2022-11-28T01:06:43;8.73;;;6.40;;
7971;SDS011;4031;49.758;6.120;2022-11-28T01:09:15;12.47;;;7.10;;
7971;SDS011;4031;49.758;6.120;2022-11-28T01:11:46;12.83;;;7.13;;
7971;SDS011;4031;49.758;6.120;2022-11-28T01:14:14;11.23;;;6.97;;
7971;SDS011;4031;49.758;6.120;2022-11-28T01:16:42;8.20;;;6.23;;
7971;SDS011;4031;49.758;6.120;2022-11-28T01:19:08;8.73;;;6.90;;
7971;SDS011;4031;49.758;6.120;2022-11-28T01:21:34;6.50;;;5.40;;
7971;SDS011;4031;49.758;6.120;2022-11-28T01:24:00;9.40;;;6.67;;
7971;SDS011;4031;49.758;6.120;2022-11-28T01:26:26;7.03;;;6.27;;
7971;SDS011;4031;49.758;6.120;2022-11-28T01:28:53;7.93;;;5.77;;
7971;SDS011;4031;49.758;6.120;2022-11-28T01:31:21;10.93;;;6.80;;
7971;SDS011;4031;49.758;6.120;2022-11-28T01:33:49;7.20;;;6.00;;
7971;SDS011;4031;49.758;6.120;2022-11-28T01:36:16;8.17;;;6.13;;
7971;SDS011;4031;49.758;6.120;2022-11-28T01:38:43;9.97;;;5.73;;
7971;SDS011;4031;49.758;6.120;2022-11-28T01:41:14;12.50;;;7.13;;
7971;SDS011;4031;49.758;6.120;2022-11-28T01:43:57;7.03;;;5.33;;
7971;SDS011;4031;49.758;6.120;2022-11-28T01:46:53;9.10;;;6.27;;
7971;SDS011;4031;49.758;6.120;2022-11-28T01:49:24;11.80;;;6.43;;
7971;SDS011;4031;49.758;6.120;2022-11-28T01:51:57;8.60;;;6.33;;
7971;SDS011;4031;49.758;6.120;2022-11-28T01:54:28;7.90;;;6.67;;
7971;SDS011;4031;49.758;6.120;2022-11-28T01:56:59;8.60;;;6.20;;
7971;SDS011;4031;49.758;6.120;2022-11-28T01:59:29;12.40;;;6.50;;
7971;SDS011;4031;49.758;6.120;2022-11-28T02:02:03;8.30;;;5.63;;
7971;SDS011;4031;49.758;6.120;2022-11-28T02:04:32;7.70;;;5.60;;
7971;SDS011;4031;49.758;6.120;2022-11-28T02:06:58;9.00;;;5.77;;
7971;SDS011;4031;49.758;6.120;2022-11-28T02:09:24;8.60;;;6.20;;
7971;SDS011;4031;49.758;6.120;2022-11-28T02:12:25;9.77;;;5.83;;
7971;SDS011;4031;49.758;6.120;2022-11-28T02:14:53;7.90;;;5.40;;
7971;SDS011;4031;49.758;6.120;2022-11-28T02:17:54;8.13;;;5.60;;
7971;SDS011;4031;49.758;6.120;2022-11-28T02:23:14;11.00;;;6.43;;
7971;SDS011;4031;49.758;6.120;2022-11-28T02:26:20;9.70;;;7.00;;
7971;SDS011;4031;49.758;6.120;2022-11-28T02:29:32;8.60;;;6.10;;
7971;SDS011;4031;49.758;6.120;2022-11-28T02:35:30;9.40;;;5.70;;
7971;SDS011;4031;49.758;6.120;2022-11-28T02:41:52;8.93;;;6.70;;
7971;SDS011;4031;49.758;6.120;2022-11-28T02:47:04;10.70;;;6.60;;
7971;SDS011;4031;49.758;6.120;2022-11-28T02:49:43;11.40;;;7.47;;
7971;SDS011;4031;49.758;6.120;2022-11-28T02:52:21;8.00;;;7.07;;
7971;SDS011;4031;49.758;6.120;2022-11-28T02:54:53;7.50;;;6.67;;
7971;SDS011;4031;49.758;6.120;2022-11-28T02:57:20;10.43;;;7.40;;
7971;SDS011;4031;49.758;6.120;2022-11-28T02:59:48;9.50;;;6.23;;
7971;SDS011;4031;49.758;6.120;2022-11-28T03:02:16;9.43;;;7.33;;
7971;SDS011;4031;49.758;6.120;2022-11-28T03:10:45;10.50;;;7.20;;
7971;SDS011;4031;49.758;6.120;2022-11-28T03:13:40;11.60;;;7.53;;
7971;SDS011;4031;49.758;6.120;2022-11-28T03:16:25;16.70;;;7.40;;
7971;SDS011;4031;49.758;6.120;2022-11-28T03:24:31;12.90;;;9.43;;
7971;SDS011;4031;49.758;6.120;2022-11-28T03:29:45;8.37;;;6.60;;
7971;SDS011;4031;49.758;6.120;2022-11-28T03:32:28;10.53;;;7.20;;
7971;SDS011;4031;49.758;6.120;2022-11-28T03:35:05;11.73;;;7.43;;
7971;SDS011;4031;49.758;6.120;2022-11-28T03:37:38;10.53;;;7.00;;
7971;SDS011;4031;49.758;6.120;2022-11-28T03:40:12;12.17;;;7.97;;
7971;SDS011;4031;49.758;6.120;2022-11-28T03:42:45;10.20;;;8.00;;
7971;SDS011;4031;49.758;6.120;2022-11-28T03:45:28;13.37;;;7.73;;
7971;SDS011;4031;49.758;6.120;2022-11-28T03:48:02;9.17;;;7.50;;
7971;SDS011;4031;49.758;6.120;2022-11-28T03:50:35;10.83;;;8.10;;
7971;SDS011;4031;49.758;6.120;2022-11-28T03:53:13;9.43;;;8.30;;
7971;SDS011;4031;49.758;6.120;2022-11-28T03:55:50;11.27;;;8.20;;
7971;SDS011;4031;49.758;6.120;2022-11-28T03:58:39;11.03;;;7.20;;
7971;SDS011;4031;49.758;6.120;2022-11-28T04:03:57;10.90;;;7.73;;
7971;SDS011;4031;49.758;6.120;2022-11-28T04:06:48;9.83;;;7.13;;
7971;SDS011;4031;49.758;6.120;2022-11-28T04:09:30;9.40;;;6.50;;
7971;SDS011;4031;49.758;6.120;2022-11-28T04:12:17;8.93;;;7.67;;
7971;SDS011;4031;49.758;6.120;2022-11-28T04:15:03;8.23;;;7.10;;
7971;SDS011;4031;49.758;6.120;2022-11-28T04:17:40;10.80;;;7.23;;
7971;SDS011;4031;49.758;6.120;2022-11-28T04:23:19;10.90;;;7.93;;
7971;SDS011;4031;49.758;6.120;2022-11-28T04:25:57;9.50;;;6.67;;
7971;SDS011;4031;49.758;6.120;2022-11-28T04:28:30;9.83;;;7.27;;
7971;SDS011;4031;49.758;6.120;2022-11-28T04:30:59;9.93;;;7.37;;
7971;SDS011;4031;49.758;6.120;2022-11-28T04:33:27;11.20;;;7.10;;
7971;SDS011;4031;49.758;6.120;2022-11-28T04:35:57;9.00;;;6.90;;
7971;SDS011;4031;49.758;6.120;2022-11-28T04:38:24;9.43;;;6.83;;
7971;SDS011;4031;49.758;6.120;2022-11-28T04:40:54;10.80;;;6.63;;
7971;SDS011;4031;49.758;6.120;2022-11-28T04:43:27;8.10;;;6.77;;
7971;SDS011;4031;49.758;6.120;2022-11-28T04:46:04;11.90;;;7.00;;
7971;SDS011;4031;49.758;6.120;2022-11-28T04:48:37;13.27;;;6.60;;
7971;SDS011;4031;49.758;6.120;2022-11-28T04:53:54;10.50;;;6.33;;
7971;SDS011;4031;49.758;6.120;2022-11-28T04:56:37;8.53;;;6.40;;
7971;SDS011;4031;49.758;6.120;2022-11-28T04:59:11;6.13;;;5.40;;
7971;SDS011;4031;49.758;6.120;2022-11-28T05:01:38;11.77;;;6.43;;
7971;SDS011;4031;49.758;6.120;2022-11-28T05:04:08;7.87;;;5.90;;
7971;SDS011;4031;49.758;6.120;2022-11-28T05:06:34;9.30;;;6.20;;
7971;SDS011;4031;49.758;6.120;2022-11-28T05:09:01;8.90;;;7.37;;
7971;SDS011;4031;49.758;6.120;2022-11-28T05:11:28;11.77;;;6.63;;
7971;SDS011;4031;49.758;6.120;2022-11-28T05:13:54;7.67;;;5.33;;
7971;SDS011;4031;49.758;6.120;2022-11-28T05:16:20;7.30;;;5.20;;
7971;SDS011;4031;49.758;6.120;2022-11-28T05:18:47;10.80;;;6.20;;
7971;SDS011;4031;49.758;6.120;2022-11-28T05:21:13;7.77;;;6.40;;
7971;SDS011;4031;49.758;6.120;2022-11-28T05:23:39;9.00;;;7.00;;
7971;SDS011;4031;49.758;6.120;2022-11-28T05:26:12;6.63;;;5.13;;
7971;SDS011;4031;49.758;6.120;2022-11-28T05:28:45;8.90;;;5.60;;
7971;SDS011;4031;49.758;6.120;2022-11-28T05:31:14;8.67;;;6.90;;
7971;SDS011;4031;49.758;6.120;2022-11-28T05:33:41;9.80;;;5.83;;
7971;SDS011;4031;49.758;6.120;2022-11-28T05:36:08;9.10;;;5.47;;
7971;SDS011;4031;49.758;6.120;2022-11-28T05:38:36;6.77;;;5.33;;
7971;SDS011;4031;49.758;6.120;2022-11-28T05:41:02;7.40;;;5.10;;
7971;SDS011;4031;49.758;6.120;2022-11-28T05:43:29;10.00;;;5.50;;
7971;SDS011;4031;49.758;6.120;2022-11-28T05:45:55;9.80;;;6.17;;
7971;SDS011;4031;49.758;6.120;2022-11-28T05:48:22;7.17;;;6.33;;
7971;SDS011;4031;49.758;6.120;2022-11-28T05:50:48;9.97;;;6.90;;
7971;SDS011;4031;49.758;6.120;2022-11-28T05:53:17;10.60;;;6.87;;
7971;SDS011;4031;49.758;6.120;2022-11-28T05:55:44;12.60;;;7.93;;
7971;SDS011;4031;49.758;6.120;2022-11-28T05:58:10;10.40;;;6.63;;
7971;SDS011;4031;49.758;6.120;2022-11-28T06:00:36;12.10;;;6.00;;
7971;SDS011;4031;49.758;6.120;2022-11-28T06:03:03;9.60;;;6.40;;
7971;SDS011;4031;49.758;6.120;2022-11-28T06:05:29;12.37;;;6.30;;
7971;SDS011;4031;49.758;6.120;2022-11-28T06:07:55;11.83;;;7.27;;
7971;SDS011;4031;49.758;6.120;2022-11-28T06:10:21;9.83;;;7.00;;
7971;SDS011;4031;49.758;6.120;2022-11-28T06:12:47;10.43;;;6.60;;
7971;SDS011;4031;49.758;6.120;2022-11-28T06:15:13;8.30;;;5.40;;
7971;SDS011;4031;49.758;6.120;2022-11-28T06:17:39;2.80;;;2.57;;
7971;SDS011;4031;49.758;6.120;2022-11-28T06:20:05;9.03;;;6.07;;
7971;SDS011;4031;49.758;6.120;2022-11-28T06:22:32;6.60;;;5.43;;
7971;SDS011;4031;49.758;6.120;2022-11-28T06:24:59;11.20;;;6.40;;
7971;SDS011;4031;49.758;6.120;2022-11-28T06:27:24;9.93;;;6.87;;
7971;SDS011;4031;49.758;6.120;2022-11-28T06:29:50;10.37;;;6.97;;
7971;SDS011;4031;49.758;6.120;2022-11-28T06:32:16;11.13;;;7.77;;
7971;SDS011;4031;49.758;6.120;2022-11-28T06:34:42;8.07;;;6.73;;
7971;SDS011;4031;49.758;6.120;2022-11-28T06:37:08;8.53;;;5.90;;
7971;SDS011;4031;49.758;6.120;2022-11-28T06:39:34;10.67;;;7.00;;
7971;SDS011;4031;49.758;6.120;2022-11-28T06:41:59;8.87;;;6.60;;
7971;SDS011;4031;49.758;6.120;2022-11-28T06:44:25;15.87;;;8.17;;
7971;SDS011;4031;49.758;6.120;2022-11-28T06:46:51;11.97;;;6.83;;
7971;SDS011;4031;49.758;6.120;2022-11-28T06:49:18;8.20;;;6.60;;
7971;SDS011;4031;49.758;6.120;2022-11-28T06:51:44;13.97;;;8.80;;
7971;SDS011;4031;49.758;6.120;2022-11-28T06:54:10;10.00;;;7.63;;
7971;SDS011;4031;49.758;6.120;2022-11-28T06:56:38;5.83;;;5.33;;
7971;SDS011;4031;49.758;6.120;2022-11-28T06:59:04;14.67;;;7.10;;
7971;SDS011;4031;49.758;6.120;2022-11-28T07:01:30;10.17;;;7.03;;
7971;SDS011;4031;49.758;6.120;2022-11-28T07:03:58;10.30;;;7.43;;
7971;SDS011;4031;49.758;6.120;2022-11-28T07:06:26;8.83;;;7.17;;
7971;SDS011;4031;49.758;6.120;2022-11-28T07:08:53;9.30;;;7.57;;
7971;SDS011;4031;49.758;6.120;2022-11-28T07:11:28;13.47;;;7.17;;
7971;SDS011;4031;49.758;6.120;2022-11-28T07:13:56;9.10;;;4.97;;
7971;SDS011;4031;49.758;6.120;2022-11-28T07:16:25;10.97;;;7.03;;
7971;SDS011;4031;49.758;6.120;2022-11-28T07:18:55;13.53;;;7.50;;
7971;SDS011;4031;49.758;6.120;2022-11-28T07:21:22;12.83;;;7.60;;
7971;SDS011;4031;49.758;6.120;2022-11-28T07:23:48;9.67;;;6.97;;
7971;SDS011;4031;49.758;6.120;2022-11-28T07:26:15;11.37;;;7.30;;
7971;SDS011;4031;49.758;6.120;2022-11-28T07:28:43;11.17;;;8.80;;
7971;SDS011;4031;49.758;6.120;2022-11-28T07:31:11;9.30;;;7.20;;
7971;SDS011;4031;49.758;6.120;2022-11-28T07:33:41;11.90;;;9.50;;
7971;SDS011;4031;49.758;6.120;2022-11-28T07:36:11;14.00;;;9.00;;
7971;SDS011;4031;49.758;6.120;2022-11-28T07:38:56;14.27;;;8.83;;
7971;SDS011;4031;49.758;6.120;2022-11-28T07:41:25;11.23;;;8.00;;
7971;SDS011;4031;49.758;6.120;2022-11-28T07:43:55;12.70;;;7.50;;
7971;SDS011;4031;49.758;6.120;2022-11-28T07:46:24;11.73;;;7.13;;
7971;SDS011;4031;49.758;6.120;2022-11-28T07:48:51;10.93;;;6.97;;
7971;SDS011;4031;49.758;6.120;2022-11-28T07:51:19;9.87;;;6.30;;
7971;SDS011;4031;49.758;6.120;2022-11-28T07:53:48;9.43;;;6.23;;
7971;SDS011;4031;49.758;6.120;2022-11-28T07:56:15;6.67;;;4.03;;
7971;SDS011;4031;49.758;6.120;2022-11-28T07:58:45;7.73;;;6.00;;
7971;SDS011;4031;49.758;6.120;2022-11-28T08:01:21;9.30;;;5.97;;
7971;SDS011;4031;49.758;6.120;2022-11-28T08:03:50;11.00;;;7.37;;
7971;SDS011;4031;49.758;6.120;2022-11-28T08:06:17;10.67;;;6.27;;
7971;SDS011;4031;49.758;6.120;2022-11-28T08:08:46;10.33;;;5.50;;
7971;SDS011;4031;49.758;6.120;2022-11-28T08:11:13;11.07;;;5.60;;
7971;SDS011;4031;49.758;6.120;2022-11-28T08:13:42;7.83;;;6.03;;
7971;SDS011;4031;49.758;6.120;2022-11-28T08:16:10;9.40;;;6.23;;
7971;SDS011;4031;49.758;6.120;2022-11-28T08:18:38;7.43;;;5.87;;
7971;SDS011;4031;49.758;6.120;2022-11-28T08:21:05;8.20;;;7.10;;
7971;SDS011;4031;49.758;6.120;2022-11-28T08:23:53;6.97;;;5.93;;
7971;SDS011;4031;49.758;6.120;2022-11-28T08:26:21;8.53;;;6.67;;
7971;SDS011;4031;49.758;6.120;2022-11-28T08:28:49;11.47;;;7.00;;
7971;SDS011;4031;49.758;6.120;2022-11-28T08:33:50;11.43;;;6.80;;
7971;SDS011;4031;49.758;6.120;2022-11-28T08:36:20;9.00;;;6.93;;
7971;SDS011;4031;49.758;6.120;2022-11-28T08:38:46;9.67;;;6.70;;
7971;SDS011;4031;49.758;6.120;2022-11-28T08:41:15;9.47;;;5.77;;
7971;SDS011;4031;49.758;6.120;2022-11-28T08:43:45;7.00;;;6.30;;
7971;SDS011;4031;49.758;6.120;2022-11-28T08:46:13;6.90;;;5.37;;
7971;SDS011;4031;49.758;6.120;2022-11-28T08:48:42;9.03;;;5.93;;
7971;SDS011;4031;49.758;6.120;2022-11-28T08:51:10;5.93;;;5.33;;
7971;SDS011;4031;49.758;6.120;2022-11-28T08:53:41;8.10;;;6.33;;
7971;SDS011;4031;49.758;6.120;2022-11-28T08:56:09;10.07;;;6.67;;
7971;SDS011;4031;49.758;6.120;2022-11-28T08:58:36;11.90;;;7.60;;
7971;SDS011;4031;49.758;6.120;2022-11-28T09:01:02;8.57;;;6.30;;
7971;SDS011;4031;49.758;6.120;2022-11-28T09:03:28;6.67;;;6.07;;
7971;SDS011;4031;49.758;6.120;2022-11-28T09:05:58;10.70;;;6.20;;
7971;SDS011;4031;49.758;6.120;2022-11-28T09:08:28;8.73;;;5.97;;
7971;SDS011;4031;49.758;6.120;2022-11-28T09:10:54;7.60;;;5.93;;
7971;SDS011;4031;49.758;6.120;2022-11-28T09:13:19;8.47;;;6.43;;
7971;SDS011;4031;49.758;6.120;2022-11-28T09:15:45;8.87;;;6.60;;
7971;SDS011;4031;49.758;6.120;2022-11-28T09:18:11;8.00;;;5.93;;
7971;SDS011;4031;49.758;6.120;2022-11-28T09:20:39;7.37;;;6.60;;
7971;SDS011;4031;49.758;6.120;2022-11-28T09:23:06;12.67;;;7.10;;
7971;SDS011;4031;49.758;6.120;2022-11-28T09:25:36;9.00;;;6.03;;
7971;SDS011;4031;49.758;6.120;2022-11-28T09:28:02;10.27;;;6.07;;
7971;SDS011;4031;49.758;6.120;2022-11-28T09:30:28;9.70;;;5.83;;
7971;SDS011;4031;49.758;6.120;2022-11-28T09:32:54;6.33;;;5.73;;
7971;SDS011;4031;49.758;6.120;2022-11-28T09:35:20;9.63;;;6.10;;
7971;SDS011;4031;49.758;6.120;2022-11-28T09:37:46;7.20;;;5.60;;
7971;SDS011;4031;49.758;6.120;2022-11-28T09:40:23;7.63;;;5.57;;
7971;SDS011;4031;49.758;6.120;2022-11-28T09:42:59;6.37;;;4.93;;
7971;SDS011;4031;49.758;6.120;2022-11-28T09:45:26;7.57;;;5.47;;
7971;SDS011;4031;49.758;6.120;2022-11-28T09:48:35;7.40;;;5.50;;
7971;SDS011;4031;49.758;6.120;2022-11-28T09:51:05;6.70;;;4.40;;
7971;SDS011;4031;49.758;6.120;2022-11-28T09:53:53;6.50;;;5.90;;
7971;SDS011;4031;49.758;6.120;2022-11-28T09:56:32;6.00;;;4.93;;
7971;SDS011;4031;49.758;6.120;2022-11-28T09:58:58;8.03;;;5.50;;
7971;SDS011;4031;49.758;6.120;2022-11-28T10:01:30;5.30;;;4.80;;
7971;SDS011;4031;49.758;6.120;2022-11-28T10:18:43;6.10;;;5.17;;
7971;SDS011;4031;49.758;6.120;2022-11-28T10:24:10;6.17;;;4.77;;
7971;SDS011;4031;49.758;6.120;2022-11-28T10:26:40;8.10;;;5.73;;
7971;SDS011;4031;49.758;6.120;2022-11-28T10:29:20;6.23;;;5.13;;
7971;SDS011;4031;49.758;6.120;2022-11-28T10:32:17;7.73;;;6.07;;
7971;SDS011;4031;49.758;6.120;2022-11-28T10:34:54;7.97;;;6.13;;
7971;SDS011;4031;49.758;6.120;2022-11-28T10:37:25;8.27;;;5.83;;
7971;SDS011;4031;49.758;6.120;2022-11-28T10:39:53;7.40;;;5.73;;
7971;SDS011;4031;49.758;6.120;2022-11-28T10:44:56;10.50;;;6.13;;
7971;SDS011;4031;49.758;6.120;2022-11-28T10:50:32;6.70;;;5.60;;
7971;SDS011;4031;49.758;6.120;2022-11-28T10:53:28;6.60;;;5.60;;
7971;SDS011;4031;49.758;6.120;2022-11-28T10:56:19;7.10;;;5.50;;
7971;SDS011;4031;49.758;6.120;2022-11-28T11:02:19;15.20;;;6.07;;
7971;SDS011;4031;49.758;6.120;2022-11-28T11:04:58;6.40;;;5.80;;
7971;SDS011;4031;49.758;6.120;2022-11-28T11:07:28;9.50;;;6.00;;
7971;SDS011;4031;49.758;6.120;2022-11-28T11:10:18;8.17;;;5.20;;
7971;SDS011;4031;49.758;6.120;2022-11-28T11:12:44;8.13;;;5.83;;
7971;SDS011;4031;49.758;6.120;2022-11-28T11:15:18;10.03;;;5.27;;
7971;SDS011;4031;49.758;6.120;2022-11-28T11:17:48;8.50;;;5.63;;
7971;SDS011;4031;49.758;6.120;2022-11-28T11:23:11;6.47;;;5.57;;
7971;SDS011;4031;49.758;6.120;2022-11-28T11:26:18;7.17;;;6.47;;
7971;SDS011;4031;49.758;6.120;2022-11-28T11:28:46;9.57;;;7.00;;
7971;SDS011;4031;49.758;6.120;2022-11-28T11:31:21;8.13;;;6.87;;
7971;SDS011;4031;49.758;6.120;2022-11-28T11:34:11;12.20;;;7.87;;
7971;SDS011;4031;49.758;6.120;2022-11-28T11:36:41;11.53;;;8.10;;
7971;SDS011;4031;49.758;6.120;2022-11-28T11:41:37;11.57;;;7.63;;
7971;SDS011;4031;49.758;6.120;2022-11-28T11:46:51;13.20;;;7.67;;
7971;SDS011;4031;49.758;6.120;2022-11-28T11:49:33;9.03;;;7.60;;
7971;SDS011;4031;49.758;6.120;2022-11-28T11:52:13;8.00;;;5.77;;
7971;SDS011;4031;49.758;6.120;2022-11-28T11:57:23;10.67;;;7.03;;
7971;SDS011;4031;49.758;6.120;2022-11-28T12:02:43;9.50;;;7.90;;
7971;SDS011;4031;49.758;6.120;2022-11-28T12:10:26;10.07;;;7.27;;
7971;SDS011;4031;49.758;6.120;2022-11-28T12:12:56;10.30;;;6.40;;
7971;SDS011;4031;49.758;6.120;2022-11-28T12:15:28;9.47;;;7.23;;
7971;SDS011;4031;49.758;6.120;2022-11-28T12:21:12;7.13;;;6.10;;
7971;SDS011;4031;49.758;6.120;2022-11-28T12:36:00;5.80;;;5.20;;
7971;SDS011;4031;49.758;6.120;2022-11-28T12:38:54;8.67;;;6.23;;
7971;SDS011;4031;49.758;6.120;2022-11-28T12:50:12;8.07;;;6.13;;
7971;SDS011;4031;49.758;6.120;2022-11-28T12:52:55;7.70;;;5.67;;
7971;SDS011;4031;49.758;6.120;2022-11-28T12:58:34;8.33;;;7.47;;
7971;SDS011;4031;49.758;6.120;2022-11-28T13:04:04;8.23;;;6.63;;
7971;SDS011;4031;49.758;6.120;2022-11-28T13:09:37;11.60;;;7.53;;
7971;SDS011;4031;49.758;6.120;2022-11-28T13:18:17;9.00;;;6.30;;
7971;SDS011;4031;49.758;6.120;2022-11-28T13:21:07;7.07;;;5.53;;
7971;SDS011;4031;49.758;6.120;2022-11-28T13:24:13;6.57;;;5.43;;
7971;SDS011;4031;49.758;6.120;2022-11-28T13:30:16;9.17;;;7.20;;
7971;SDS011;4031;49.758;6.120;2022-11-28T13:33:14;9.20;;;6.90;;
7971;SDS011;4031;49.758;6.120;2022-11-28T13:35:59;8.37;;;6.40;;
7971;SDS011;4031;49.758;6.120;2022-11-28T13:41:19;12.50;;;7.10;;
7971;SDS011;4031;49.758;6.120;2022-11-28T13:43:52;12.87;;;6.70;;
7971;SDS011;4031;49.758;6.120;2022-11-28T13:46:31;10.13;;;7.90;;
7971;SDS011;4031;49.758;6.120;2022-11-28T13:48:59;8.43;;;6.90;;
7971;SDS011;4031;49.758;6.120;2022-11-28T13:51:33;11.20;;;7.53;;
7971;SDS011;4031;49.758;6.120;2022-11-28T13:59:32;10.83;;;6.90;;
7971;SDS011;4031;49.758;6.120;2022-11-28T14:01:59;10.40;;;8.57;;
7971;SDS011;4031;49.758;6.120;2022-11-28T14:04:28;8.50;;;7.00;;
7971;SDS011;4031;49.758;6.120;2022-11-28T14:06:58;9.50;;;7.90;;
7971;SDS011;4031;49.758;6.120;2022-11-28T14:12:26;10.60;;;7.40;;
7971;SDS011;4031;49.758;6.120;2022-11-28T14:15:25;12.20;;;7.17;;
7971;SDS011;4031;49.758;6.120;2022-11-28T14:26:10;8.30;;;7.50;;
7971;SDS011;4031;49.758;6.120;2022-11-28T14:28:51;10.83;;;7.50;;
7971;SDS011;4031;49.758;6.120;2022-11-28T14:34:02;11.23;;;8.03;;
7971;SDS011;4031;49.758;6.120;2022-11-28T14:36:35;10.70;;;7.37;;
7971;SDS011;4031;49.758;6.120;2022-11-28T14:39:11;11.80;;;8.40;;
7971;SDS011;4031;49.758;6.120;2022-11-28T14:50:44;10.23;;;7.17;;
7971;SDS011;4031;49.758;6.120;2022-11-28T14:52:45;11.20;;;8.20;;
7971;SDS011;4031;49.758;6.120;2022-11-28T14:55:16;11.60;;;9.67;;
7971;SDS011;4031;49.758;6.120;2022-11-28T15:00:26;11.53;;;8.27;;
7971;SDS011;4031;49.758;6.120;2022-11-28T15:06:00;12.80;;;8.00;;
7971;SDS011;4031;49.758;6.120;2022-11-28T15:08:36;11.47;;;8.20;;
7971;SDS011;4031;49.758;6.120;2022-11-28T15:16:45;11.37;;;7.50;;
7971;SDS011;4031;49.758;6.120;2022-11-28T15:21:48;11.97;;;8.40;;
7971;SDS011;4031;49.758;6.120;2022-11-28T15:24:20;10.57;;;7.50;;
7971;SDS011;4031;49.758;6.120;2022-11-28T15:26:52;10.83;;;8.00;;
7971;SDS011;4031;49.758;6.120;2022-11-28T15:29:31;9.33;;;7.53;;
7971;SDS011;4031;49.758;6.120;2022-11-28T15:31:58;11.80;;;7.20;;
7971;SDS011;4031;49.758;6.120;2022-11-28T15:37:02;10.20;;;7.47;;
7971;SDS011;4031;49.758;6.120;2022-11-28T15:42:06;12.13;;;7.80;;
7971;SDS011;4031;49.758;6.120;2022-11-28T15:44:44;12.90;;;7.70;;
7971;SDS011;4031;49.758;6.120;2022-11-28T15:47:14;9.67;;;7.60;;
7971;SDS011;4031;49.758;6.120;2022-11-28T15:49:43;10.80;;;6.87;;
7971;SDS011;4031;49.758;6.120;2022-11-28T15:52:15;13.37;;;7.77;;
7971;SDS011;4031;49.758;6.120;2022-11-28T15:54:42;13.17;;;8.77;;
7971;SDS011;4031;49.758;6.120;2022-11-28T15:57:18;10.70;;;7.33;;
7971;SDS011;4031;49.758;6.120;2022-11-28T15:59:47;10.90;;;8.10;;
7971;SDS011;4031;49.758;6.120;2022-11-28T16:02:15;9.27;;;7.37;;
7971;SDS011;4031;49.758;6.120;2022-11-28T16:05:04;9.93;;;7.20;;
7971;SDS011;4031;49.758;6.120;2022-11-28T16:07:35;10.53;;;6.70;;
7971;SDS011;4031;49.758;6.120;2022-11-28T16:10:15;10.53;;;7.63;;
7971;SDS011;4031;49.758;6.120;2022-11-28T16:12:49;7.53;;;6.67;;
7971;SDS011;4031;49.758;6.120;2022-11-28T16:15:19;7.63;;;6.10;;
7971;SDS011;4031;49.758;6.120;2022-11-28T16:17:47;10.03;;;7.67;;
7971;SDS011;4031;49.758;6.120;2022-11-28T16:20:20;9.23;;;7.87;;
7971;SDS011;4031;49.758;6.120;2022-11-28T16:22:53;12.30;;;7.80;;
7971;SDS011;4031;49.758;6.120;2022-11-28T16:25:26;15.77;;;8.17;;
7971;SDS011;4031;49.758;6.120;2022-11-28T16:27:54;15.33;;;7.87;;
7971;SDS011;4031;49.758;6.120;2022-11-28T16:32:47;13.30;;;7.10;;
7971;SDS011;4031;49.758;6.120;2022-11-28T16:35:23;10.87;;;7.53;;
7971;SDS011;4031;49.758;6.120;2022-11-28T16:38:15;11.97;;;8.00;;
7971;SDS011;4031;49.758;6.120;2022-11-28T16:40:48;12.00;;;7.67;;
7971;SDS011;4031;49.758;6.120;2022-11-28T16:43:37;9.20;;;7.53;;
7971;SDS011;4031;49.758;6.120;2022-11-28T16:46:03;9.10;;;6.63;;
7971;SDS011;4031;49.758;6.120;2022-11-28T16:48:35;11.70;;;7.90;;
7971;SDS011;4031;49.758;6.120;2022-11-28T17:01:37;8.47;;;7.30;;
7971;SDS011;4031;49.758;6.120;2022-11-28T17:04:03;15.50;;;7.60;;
7971;SDS011;4031;49.758;6.120;2022-11-28T17:06:30;12.70;;;8.07;;
7971;SDS011;4031;49.758;6.120;2022-11-28T17:09:08;11.30;;;8.13;;
7971;SDS011;4031;49.758;6.120;2022-11-28T17:11:37;10.20;;;7.67;;
7971;SDS011;4031;49.758;6.120;2022-11-28T17:14:08;11.97;;;8.00;;
7971;SDS011;4031;49.758;6.120;2022-11-28T17:16:37;13.97;;;7.83;;
7971;SDS011;4031;49.758;6.120;2022-11-28T17:19:04;12.73;;;7.73;;
7971;SDS011;4031;49.758;6.120;2022-11-28T17:21:31;12.43;;;8.43;;
7971;SDS011;4031;49.758;6.120;2022-11-28T17:24:04;12.47;;;8.43;;
7971;SDS011;4031;49.758;6.120;2022-11-28T17:26:38;17.00;;;9.83;;
7971;SDS011;4031;49.758;6.120;2022-11-28T17:29:03;15.33;;;8.67;;
7971;SDS011;4031;49.758;6.120;2022-11-28T17:31:33;13.87;;;9.30;;
7971;SDS011;4031;49.758;6.120;2022-11-28T17:33:59;15.57;;;8.77;;
7971;SDS011;4031;49.758;6.120;2022-11-28T17:36:24;13.00;;;9.00;;
7971;SDS011;4031;49.758;6.120;2022-11-28T17:38:50;11.17;;;7.07;;
7971;SDS011;4031;49.758;6.120;2022-11-28T17:41:16;10.40;;;8.00;;
7971;SDS011;4031;49.758;6.120;2022-11-28T17:43:42;10.30;;;7.30;;
7971;SDS011;4031;49.758;6.120;2022-11-28T17:46:08;11.73;;;7.50;;
7971;SDS011;4031;49.758;6.120;2022-11-28T17:48:34;10.73;;;7.43;;
7971;SDS011;4031;49.758;6.120;2022-11-28T17:51:00;10.03;;;7.47;;
7971;SDS011;4031;49.758;6.120;2022-11-28T17:53:28;10.57;;;7.47;;
7971;SDS011;4031;49.758;6.120;2022-11-28T17:55:54;15.20;;;7.07;;
7971;SDS011;4031;49.758;6.120;2022-11-28T17:58:23;10.57;;;6.73;;
7971;SDS011;4031;49.758;6.120;2022-11-28T18:00:50;11.27;;;7.10;;
7971;SDS011;4031;49.758;6.120;2022-11-28T18:03:16;13.00;;;6.50;;
7971;SDS011;4031;49.758;6.120;2022-11-28T18:05:44;10.47;;;6.73;;
7971;SDS011;4031;49.758;6.120;2022-11-28T18:08:12;11.17;;;6.90;;
7971;SDS011;4031;49.758;6.120;2022-11-28T18:10:40;8.80;;;6.73;;
7971;SDS011;4031;49.758;6.120;2022-11-28T18:13:07;8.50;;;6.10;;
7971;SDS011;4031;49.758;6.120;2022-11-28T18:15:34;8.83;;;6.90;;
7971;SDS011;4031;49.758;6.120;2022-11-28T18:18:02;12.40;;;6.97;;
7971;SDS011;4031;49.758;6.120;2022-11-28T18:20:29;8.33;;;6.77;;
7971;SDS011;4031;49.758;6.120;2022-11-28T18:22:56;9.77;;;6.67;;
7971;SDS011;4031;49.758;6.120;2022-11-28T18:25:23;7.40;;;5.97;;
7971;SDS011;4031;49.758;6.120;2022-11-28T18:27:49;10.50;;;7.37;;
7971;SDS011;4031;49.758;6.120;2022-11-28T18:30:16;13.07;;;7.27;;
7971;SDS011;4031;49.758;6.120;2022-11-28T18:32:42;11.70;;;7.17;;
7971;SDS011;4031;49.758;6.120;2022-11-28T18:35:08;13.57;;;7.23;;
7971;SDS011;4031;49.758;6.120;2022-11-28T18:37:34;8.23;;;6.23;;
7971;SDS011;4031;49.758;6.120;2022-11-28T18:40:00;10.30;;;7.33;;
7971;SDS011;4031;49.758;6.120;2022-11-28T18:42:25;9.00;;;7.33;;
7971;SDS011;4031;49.758;6.120;2022-11-28T18:44:51;9.30;;;6.90;;